createdAt,value
2022-12-12T00:00:01.136Z,0.58
2022-12-12T00:01:04.701Z,0.60
2022-12-12T00:01:52.148Z,0.65
2022-12-12T00:02:36.196Z,0.60
2022-12-12T00:03:11.362Z,0.64
2022-12-12T00:03:59.129Z,0.53
2022-12-12T00:04:33.205Z,0.58
2022-12-12T00:05:23.112Z,0.48
2022-12-12T00:06:04.852Z,0.40
2022-12-12T00:06:53.110Z,0.45
2022-12-12T00:07:27.202Z,0.42
2022-12-12T00:08:08.206Z,0.45
2022-12-12T00:08:49.160Z,0.40
2022-12-12T00:09:29.118Z,0.46
2022-12-12T00:10:10.207Z,0.50
2022-12-12T00:10:51.158Z,0.39
2022-12-12T00:11:33.263Z,0.39
2022-12-12T00:12:16.153Z,0.47
2022-12-12T00:12:59.181Z,0.39
2022-12-12T00:13:40.372Z,0.50
2022-12-12T00:14:20.131Z,0.53
2022-12-12T00:15:00.106Z,0.47
2022-12-12T00:15:40.215Z,0.54
2022-12-12T00:16:21.174Z,0.55
2022-12-12T00:17:01.207Z,0.59
2022-12-12T00:17:41.126Z,0.64
2022-12-12T00:18:21.146Z,0.67
2022-12-12T00:19:02.091Z,0.70
2022-12-12T00:19:43.278Z,0.72
2022-12-12T00:20:23.092Z,0.55
2022-12-12T00:21:04.152Z,0.66
2022-12-12T00:21:45.112Z,0.56
2022-12-12T00:22:25.129Z,0.56
2022-12-12T00:23:05.075Z,0.59
2022-12-12T00:23:45.225Z,0.61
2022-12-12T00:24:25.107Z,0.53
2022-12-12T00:25:05.170Z,0.60
2022-12-12T00:25:46.089Z,0.66
2022-12-12T00:26:33.194Z,0.64
2022-12-12T00:27:14.074Z,0.57
2022-12-12T00:27:54.112Z,0.57
2022-12-12T00:28:35.086Z,0.50
2022-12-12T00:29:15.179Z,0.66
2022-12-12T00:30:02.087Z,0.56
2022-12-12T00:30:42.141Z,0.65
2022-12-12T00:31:23.110Z,0.73
2022-12-12T00:32:03.127Z,0.67
2022-12-12T00:32:43.089Z,0.77
2022-12-12T00:33:24.127Z,0.64
2022-12-12T00:34:05.081Z,0.61
2022-12-12T00:34:45.356Z,0.62
2022-12-12T00:35:26.106Z,0.64
2022-12-12T00:36:06.146Z,0.64
2022-12-12T00:36:47.068Z,0.69
2022-12-12T00:37:27.163Z,0.58
2022-12-12T00:38:07.071Z,0.65
2022-12-12T00:38:47.104Z,0.67
2022-12-12T00:39:29.093Z,0.64
2022-12-12T00:40:10.476Z,0.69
2022-12-12T00:40:50.092Z,0.74
2022-12-12T00:41:31.149Z,0.78
2022-12-12T00:42:11.063Z,0.64
2022-12-12T00:42:51.178Z,0.81
2022-12-12T00:43:32.060Z,0.59
2022-12-12T00:44:13.092Z,0.74
2022-12-12T00:44:54.045Z,0.46
2022-12-12T00:45:34.233Z,0.65
2022-12-12T00:46:15.165Z,0.72
2022-12-12T00:46:55.285Z,0.62
2022-12-12T00:47:35.075Z,0.62
2022-12-12T00:48:16.252Z,0.66
2022-12-12T00:49:00.062Z,0.65
2022-12-12T00:49:40.127Z,0.55
2022-12-12T00:50:20.058Z,0.71
2022-12-12T00:51:01.116Z,0.82
2022-12-12T00:51:41.084Z,0.78
2022-12-12T00:52:21.137Z,0.81
2022-12-12T00:53:03.067Z,0.77
2022-12-12T00:53:45.363Z,0.76
2022-12-12T00:54:26.065Z,0.77
2022-12-12T00:55:06.400Z,0.77
2022-12-12T00:55:47.052Z,0.71
2022-12-12T00:56:30.797Z,0.61
2022-12-12T00:57:11.078Z,0.65
2022-12-12T00:57:51.063Z,0.68
2022-12-12T00:58:32.031Z,0.77
2022-12-12T00:59:12.120Z,0.65
2022-12-12T00:59:52.047Z,0.55
2022-12-12T01:00:32.152Z,0.65
2022-12-12T01:01:18.102Z,0.68
2022-12-12T01:01:58.127Z,0.75
2022-12-12T01:02:39.114Z,0.75
2022-12-12T01:03:19.235Z,0.73
2022-12-12T01:04:00.048Z,0.66
2022-12-12T01:04:40.053Z,0.76
2022-12-12T01:05:21.014Z,0.72
2022-12-12T01:06:01.117Z,0.58
2022-12-12T01:06:41.039Z,0.66
2022-12-12T01:07:21.088Z,0.77
2022-12-12T01:08:01.087Z,0.66
2022-12-12T01:08:41.165Z,0.72
2022-12-12T01:09:21.024Z,0.64
2022-12-12T01:10:01.055Z,0.64
2022-12-12T01:10:41.044Z,0.67
2022-12-12T01:11:22.159Z,0.73
2022-12-12T01:12:02.036Z,0.66
2022-12-12T01:12:43.143Z,0.68
2022-12-12T01:13:24.051Z,0.67
2022-12-12T01:14:04.108Z,0.60
2022-12-12T01:14:44.036Z,0.58
2022-12-12T01:15:24.178Z,0.64
2022-12-12T01:16:05.043Z,0.59
2022-12-12T01:16:45.186Z,0.61
2022-12-12T01:17:25.011Z,0.62
2022-12-12T01:18:05.051Z,0.60
2022-12-12T01:18:46.088Z,0.77
2022-12-12T01:19:26.084Z,0.76
2022-12-12T01:20:06.020Z,0.81
2022-12-12T01:20:48.083Z,0.84
2022-12-12T01:21:29.048Z,0.86
2022-12-12T01:22:09.887Z,0.81
2022-12-12T01:22:51.019Z,0.73
2022-12-12T01:23:31.080Z,0.74
2022-12-12T01:24:12.060Z,0.76
2022-12-12T01:24:52.090Z,0.79
2022-12-12T01:25:33.041Z,0.65
2022-12-12T01:26:18.164Z,0.70
2022-12-12T01:26:59.024Z,0.71
2022-12-12T01:27:39.086Z,0.76
2022-12-12T01:28:20.008Z,0.75
2022-12-12T01:29:00.069Z,0.75
2022-12-12T01:29:42.034Z,0.89
2022-12-12T01:30:25.084Z,0.84
2022-12-12T01:31:05.055Z,0.89
2022-12-12T01:31:45.151Z,0.86
2022-12-12T01:32:24.998Z,0.81
2022-12-12T01:33:05.100Z,0.87
2022-12-12T01:33:46.114Z,0.93
2022-12-12T01:34:26.101Z,0.87
2022-12-12T01:35:07.032Z,0.78
2022-12-12T01:35:47.063Z,0.76
2022-12-12T01:36:30.014Z,0.78
2022-12-12T01:37:10.056Z,0.79
2022-12-12T01:37:49.983Z,0.98
2022-12-12T01:38:30.052Z,0.87
2022-12-12T01:39:12.004Z,0.86
2022-12-12T01:39:52.046Z,0.87
2022-12-12T01:40:36.023Z,0.78
2022-12-12T01:41:16.113Z,0.75
2022-12-12T01:41:55.995Z,0.78
2022-12-12T01:42:36.022Z,0.74
2022-12-12T01:43:20.975Z,0.82
2022-12-12T01:44:02.051Z,0.75
2022-12-12T01:44:53.992Z,0.94
2022-12-12T01:46:24.079Z,0.89
2022-12-12T01:47:18.022Z,0.86
2022-12-12T01:48:12.005Z,0.71
2022-12-12T01:49:11.988Z,0.61
2022-12-12T01:50:14.966Z,0.60
2022-12-12T01:51:12.000Z,0.72
2022-12-12T01:51:53.018Z,0.67
2022-12-12T01:52:47.026Z,0.62
2022-12-12T01:53:27.984Z,0.70
2022-12-12T01:54:14.031Z,0.75
2022-12-12T01:55:01.998Z,0.69
2022-12-12T01:55:42.132Z,0.73
2022-12-12T01:56:24.973Z,0.74
2022-12-12T01:57:16.999Z,0.72
2022-12-12T01:58:10.992Z,0.74
2022-12-12T01:59:06.000Z,0.77
2022-12-12T01:59:59.978Z,0.72
2022-12-12T02:00:55.020Z,0.76
2022-12-12T02:01:49.005Z,0.74
2022-12-12T02:02:36.990Z,0.87
2022-12-12T02:03:11.010Z,0.72
2022-12-12T02:03:57.960Z,0.77
2022-12-12T02:04:33.021Z,0.73
2022-12-12T02:05:34.981Z,0.77
2022-12-12T02:06:13.275Z,0.77
2022-12-12T02:07:01.962Z,0.61
2022-12-12T02:07:36.031Z,0.73
2022-12-12T02:08:17.111Z,0.76
2022-12-12T02:09:00.021Z,0.81
2022-12-12T02:09:40.944Z,0.73
2022-12-12T02:10:20.989Z,0.65
2022-12-12T02:11:00.978Z,0.82
2022-12-12T02:11:48.015Z,0.85
2022-12-12T02:12:27.958Z,0.86
2022-12-12T02:13:25.971Z,0.87
2022-12-12T02:14:19.967Z,0.89
2022-12-12T02:15:14.216Z,0.89
2022-12-12T02:16:13.978Z,0.90
2022-12-12T02:17:34.967Z,0.90
2022-12-12T02:19:11.024Z,0.93
2022-12-12T02:20:44.947Z,0.81
2022-12-12T02:22:04.956Z,0.75
2022-12-12T02:23:13.940Z,0.69
2022-12-12T02:24:28.972Z,0.76
2022-12-12T02:26:20.970Z,0.70
2022-12-12T02:27:40.931Z,0.71
2022-12-12T02:29:11.941Z,0.79
2022-12-12T02:30:29.977Z,0.79
2022-12-12T02:31:55.088Z,0.85
2022-12-12T02:32:59.939Z,0.71
2022-12-12T02:34:33.942Z,0.76
2022-12-12T02:35:46.948Z,0.73
2022-12-12T02:37:36.952Z,0.63
2022-12-12T02:39:02.947Z,0.61
2022-12-12T02:40:26.926Z,0.75
2022-12-12T02:41:47.951Z,0.68
2022-12-12T02:42:46.991Z,0.57
2022-12-12T02:43:58.942Z,0.78
2022-12-12T02:45:06.976Z,0.69
2022-12-12T02:45:56.921Z,0.72
2022-12-12T02:46:45.069Z,0.68
2022-12-12T02:47:29.954Z,0.64
2022-12-12T02:48:40.061Z,0.60
2022-12-12T02:49:53.933Z,0.68
2022-12-12T02:50:35.116Z,0.66
2022-12-12T02:51:17.927Z,0.65
2022-12-12T02:51:59.435Z,0.73
2022-12-12T02:52:39.943Z,0.85
2022-12-12T02:53:23.968Z,0.66
2022-12-12T02:54:06.928Z,0.65
2022-12-12T02:54:48.644Z,0.57
2022-12-12T02:55:33.778Z,0.54
2022-12-12T02:56:53.013Z,0.51
2022-12-12T02:57:33.915Z,0.67
2022-12-12T02:58:13.929Z,0.63
2022-12-12T02:58:47.952Z,0.58
2022-12-12T02:59:42.912Z,0.71
2022-12-12T03:00:24.013Z,0.54
2022-12-12T03:01:42.998Z,0.60
2022-12-12T03:02:42.159Z,0.54
2022-12-12T03:04:00.939Z,0.63
2022-12-12T03:05:20.650Z,0.58
2022-12-12T03:06:57.900Z,0.56
2022-12-12T03:08:03.984Z,0.49
2022-12-12T03:09:23.943Z,0.45
2022-12-12T03:10:14.950Z,0.40
2022-12-12T03:11:03.895Z,0.48
2022-12-12T03:12:08.232Z,0.56
2022-12-12T03:13:18.904Z,0.43
2022-12-12T03:14:14.933Z,0.49
2022-12-12T03:15:07.908Z,0.51
2022-12-12T03:16:00.082Z,0.55
2022-12-12T03:16:57.900Z,0.53
2022-12-12T03:18:04.955Z,0.56
2022-12-12T03:19:15.879Z,0.51
2022-12-12T03:20:24.958Z,0.60
2022-12-12T03:21:48.872Z,0.42
2022-12-12T03:22:59.901Z,0.58
2022-12-12T03:23:58.899Z,0.47
2022-12-12T03:25:22.878Z,0.59
2022-12-12T03:26:18.897Z,0.54
2022-12-12T03:27:05.909Z,0.48
2022-12-12T03:27:56.875Z,0.56
2022-12-12T03:28:53.925Z,0.46
2022-12-12T03:29:42.875Z,0.54
2022-12-12T03:30:31.904Z,0.52
2022-12-12T03:31:26.904Z,0.47
2022-12-12T03:32:28.867Z,0.58
2022-12-12T03:33:56.875Z,0.57
2022-12-12T03:34:58.899Z,0.40
2022-12-12T03:36:10.915Z,0.46
2022-12-12T03:36:54.395Z,0.31
2022-12-12T03:37:49.884Z,0.50
2022-12-12T03:38:36.910Z,0.40
2022-12-12T03:39:36.862Z,0.44
2022-12-12T03:40:20.890Z,0.53
2022-12-12T03:41:11.880Z,0.54
2022-12-12T03:41:50.916Z,0.48
2022-12-12T03:43:04.866Z,0.40
2022-12-12T03:43:47.082Z,0.51
2022-12-12T03:44:43.887Z,0.45
2022-12-12T03:45:26.067Z,0.38
2022-12-12T03:46:30.886Z,0.45
2022-12-12T03:47:11.972Z,0.39
2022-12-12T03:48:26.880Z,0.44
2022-12-12T03:49:13.929Z,0.33
2022-12-12T03:50:00.860Z,0.45
2022-12-12T03:51:20.960Z,0.46
2022-12-12T03:52:13.876Z,0.43
2022-12-12T03:53:11.914Z,0.47
2022-12-12T03:54:02.831Z,0.48
2022-12-12T03:55:26.931Z,0.46
2022-12-12T03:56:18.875Z,0.48
2022-12-12T03:57:06.002Z,0.40
2022-12-12T03:57:53.872Z,0.43
2022-12-12T03:58:35.525Z,0.34
2022-12-12T03:59:27.638Z,0.40
2022-12-12T04:00:18.105Z,0.38
2022-12-12T04:00:58.867Z,0.46
2022-12-12T04:01:48.884Z,0.41
2022-12-12T04:02:49.849Z,0.43
2022-12-12T04:04:02.855Z,0.34
2022-12-12T04:04:55.119Z,0.37
2022-12-12T04:06:07.680Z,0.26
2022-12-12T04:07:16.831Z,0.33
2022-12-12T04:08:04.924Z,0.38
2022-12-12T04:08:39.435Z,0.38
2022-12-12T04:09:43.860Z,0.29
2022-12-12T04:10:36.312Z,0.29
2022-12-12T04:11:36.357Z,0.30
2022-12-12T04:13:02.962Z,0.44
2022-12-12T04:13:46.971Z,0.31
2022-12-12T04:14:41.984Z,0.30
2022-12-12T04:15:54.846Z,0.36
2022-12-12T04:16:37.447Z,0.25
2022-12-12T04:17:15.768Z,0.26
2022-12-12T04:18:20.819Z,0.31
2022-12-12T04:19:37.867Z,0.36
2022-12-12T04:21:15.892Z,0.41
2022-12-12T04:22:20.403Z,0.29
2022-12-12T04:23:39.802Z,0.36
2022-12-12T04:24:39.001Z,0.34
2022-12-12T04:25:40.801Z,0.37
2022-12-12T04:26:47.815Z,0.28
2022-12-12T04:27:27.533Z,0.37
2022-12-12T04:28:17.832Z,0.35
2022-12-12T04:29:01.377Z,0.47
2022-12-12T04:30:10.806Z,0.42
2022-12-12T04:30:44.963Z,0.45
2022-12-12T04:31:34.839Z,0.43
2022-12-12T04:32:26.823Z,0.53
2022-12-12T04:33:17.851Z,0.42
2022-12-12T04:34:04.808Z,0.46
2022-12-12T04:35:12.116Z,0.52
2022-12-12T04:35:55.814Z,0.47
2022-12-12T04:36:37.955Z,0.47
2022-12-12T04:37:23.804Z,0.39
2022-12-12T04:38:16.833Z,0.56
2022-12-12T04:38:51.831Z,0.61
2022-12-12T04:39:26.863Z,0.44
2022-12-12T04:40:11.778Z,0.48
2022-12-12T04:40:50.053Z,0.43
2022-12-12T04:41:24.383Z,0.46
2022-12-12T04:42:07.795Z,0.56
2022-12-12T04:42:47.949Z,0.46
2022-12-12T04:43:40.803Z,0.47
2022-12-12T04:44:22.835Z,0.56
2022-12-12T04:45:10.926Z,0.43
2022-12-12T04:46:08.226Z,0.44
2022-12-12T04:46:49.791Z,0.52
2022-12-12T04:47:30.904Z,0.49
2022-12-12T04:48:12.816Z,0.45
2022-12-12T04:49:29.805Z,0.59
2022-12-12T04:50:04.401Z,0.40
2022-12-12T04:50:54.792Z,0.33
2022-12-12T04:51:44.338Z,0.52
2022-12-12T04:52:33.812Z,0.53
2022-12-12T04:53:16.542Z,0.58
2022-12-12T04:54:25.778Z,0.65
2022-12-12T04:55:19.990Z,0.60
2022-12-12T04:56:03.030Z,0.37
2022-12-12T04:56:44.779Z,0.59
2022-12-12T04:57:31.845Z,0.55
2022-12-12T04:58:12.765Z,0.53
2022-12-12T04:58:52.907Z,0.49
2022-12-12T04:59:33.784Z,0.55
2022-12-12T05:00:16.867Z,0.48
2022-12-12T05:01:25.843Z,0.56
2022-12-12T05:02:20.863Z,0.58
2022-12-12T05:03:33.785Z,0.73
2022-12-12T05:04:26.820Z,0.63
2022-12-12T05:05:16.750Z,0.58
2022-12-12T05:06:04.048Z,0.55
2022-12-12T05:06:53.829Z,0.57
2022-12-12T05:07:44.002Z,0.46
2022-12-12T05:08:48.766Z,0.51
2022-12-12T05:09:30.051Z,0.36
2022-12-12T05:10:14.760Z,0.53
2022-12-12T05:11:00.817Z,0.54
2022-12-12T05:11:41.743Z,0.55
2022-12-12T05:12:23.760Z,0.55
2022-12-12T05:13:03.802Z,0.56
2022-12-12T05:13:41.554Z,0.55
2022-12-12T05:14:22.755Z,0.56
2022-12-12T05:14:56.827Z,0.61
2022-12-12T05:15:30.497Z,0.48
2022-12-12T05:16:29.832Z,0.57
2022-12-12T05:17:14.048Z,0.57
2022-12-12T05:18:12.768Z,0.53
2022-12-12T05:18:53.776Z,0.62
2022-12-12T05:19:33.750Z,0.59
2022-12-12T05:20:14.778Z,0.55
2022-12-12T05:20:54.769Z,0.62
2022-12-12T05:21:34.788Z,0.62
2022-12-12T05:22:14.768Z,0.60
2022-12-12T05:22:54.786Z,0.47
2022-12-12T05:23:35.139Z,0.53
2022-12-12T05:24:14.807Z,0.60
2022-12-12T05:24:54.725Z,0.72
2022-12-12T05:25:35.805Z,0.63
2022-12-12T05:26:36.742Z,0.72
2022-12-12T05:27:18.847Z,0.70
2022-12-12T05:27:58.766Z,0.67
2022-12-12T05:28:45.805Z,0.71
2022-12-12T05:29:19.500Z,0.64
2022-12-12T05:30:07.757Z,0.64
2022-12-12T05:30:41.544Z,0.68
2022-12-12T05:31:28.742Z,0.61
2022-12-12T05:32:02.855Z,0.64
2022-12-12T05:32:49.741Z,0.63
2022-12-12T05:33:23.449Z,0.71
2022-12-12T05:34:10.755Z,0.66
2022-12-12T05:34:44.427Z,0.59
2022-12-12T05:35:31.723Z,0.75
2022-12-12T05:36:05.780Z,0.51
2022-12-12T05:36:52.731Z,0.70
2022-12-12T05:37:26.424Z,0.74
2022-12-12T05:38:15.717Z,0.76
2022-12-12T05:38:49.787Z,0.68
2022-12-12T05:39:30.767Z,0.75
2022-12-12T05:40:04.804Z,0.74
2022-12-12T05:40:38.722Z,0.77
2022-12-12T05:41:19.745Z,0.77
2022-12-12T05:42:00.916Z,0.72
2022-12-12T05:42:41.771Z,0.67
2022-12-12T05:43:21.823Z,0.78
2022-12-12T05:44:02.716Z,0.77
2022-12-12T05:44:49.754Z,0.81
2022-12-12T05:45:23.765Z,0.82
2022-12-12T05:46:10.886Z,0.70
2022-12-12T05:46:44.851Z,0.69
2022-12-12T05:47:31.715Z,0.56
2022-12-12T05:48:05.675Z,0.63
2022-12-12T05:48:56.738Z,0.73
2022-12-12T05:49:30.437Z,0.71
2022-12-12T05:50:12.747Z,0.66
2022-12-12T05:50:46.787Z,0.67
2022-12-12T05:51:21.198Z,0.64
2022-12-12T05:52:00.731Z,0.57
2022-12-12T05:52:34.798Z,0.58
2022-12-12T05:53:08.410Z,0.61
2022-12-12T05:53:49.714Z,0.47
2022-12-12T05:54:23.754Z,0.58
2022-12-12T05:54:57.398Z,0.62
2022-12-12T05:55:38.740Z,0.67
2022-12-12T05:56:12.906Z,0.62
2022-12-12T05:56:47.398Z,0.70
2022-12-12T05:57:27.696Z,0.73
2022-12-12T05:58:01.740Z,0.73
2022-12-12T05:58:35.548Z,0.71
2022-12-12T05:59:15.723Z,0.74
2022-12-12T05:59:49.762Z,0.77
2022-12-12T06:00:23.844Z,0.75
2022-12-12T06:01:04.740Z,0.77
2022-12-12T06:01:38.773Z,0.72
2022-12-12T06:02:13.333Z,0.71
2022-12-12T06:02:53.787Z,0.84
2022-12-12T06:03:27.750Z,0.79
2022-12-12T06:04:01.437Z,0.75
2022-12-12T06:04:41.698Z,0.64
2022-12-12T06:05:16.108Z,0.57
2022-12-12T06:05:50.366Z,0.54
2022-12-12T06:06:30.732Z,0.74
2022-12-12T06:07:04.735Z,0.79
2022-12-12T06:07:38.367Z,0.75
2022-12-12T06:08:23.630Z,0.79
2022-12-12T06:08:58.802Z,0.79
2022-12-12T06:09:32.658Z,0.83
2022-12-12T06:10:14.682Z,0.76
2022-12-12T06:10:48.716Z,0.83
2022-12-12T06:11:22.334Z,0.88
2022-12-12T06:12:02.768Z,0.85
2022-12-12T06:12:36.760Z,0.70
2022-12-12T06:13:10.571Z,0.68
2022-12-12T06:13:50.693Z,0.70
2022-12-12T06:14:24.752Z,0.87
2022-12-12T06:14:58.384Z,0.89
2022-12-12T06:15:38.729Z,0.89
2022-12-12T06:16:23.775Z,0.89
2022-12-12T06:16:57.634Z,0.84
2022-12-12T06:17:37.679Z,0.83
2022-12-12T06:18:12.215Z,0.71
2022-12-12T06:18:53.863Z,0.94
2022-12-12T06:19:33.699Z,0.97
2022-12-12T06:20:07.933Z,0.91
2022-12-12T06:20:41.459Z,0.98
2022-12-12T06:21:21.684Z,0.91
2022-12-12T06:21:55.736Z,0.96
2022-12-12T06:22:29.338Z,0.89
2022-12-12T06:23:10.696Z,0.91
2022-12-12T06:23:48.715Z,0.97
2022-12-12T06:24:22.707Z,0.88
2022-12-12T06:25:02.683Z,0.78
2022-12-12T06:25:36.724Z,0.89
2022-12-12T06:26:13.154Z,0.97
2022-12-12T06:26:52.682Z,0.79
2022-12-12T06:27:27.829Z,0.84
2022-12-12T06:28:01.369Z,0.79
2022-12-12T06:28:42.943Z,0.70
2022-12-12T06:29:16.741Z,0.81
2022-12-12T06:29:50.331Z,0.90
2022-12-12T06:30:30.644Z,0.84
2022-12-12T06:31:11.114Z,0.87
2022-12-12T06:31:45.351Z,0.85
2022-12-12T06:32:26.671Z,0.84
2022-12-12T06:33:00.779Z,0.83
2022-12-12T06:33:35.610Z,0.83
2022-12-12T06:34:15.683Z,0.78
2022-12-12T06:34:49.716Z,0.89
2022-12-12T06:35:23.575Z,0.87
2022-12-12T06:36:12.695Z,0.88
2022-12-12T06:36:46.729Z,0.82
2022-12-12T06:37:20.314Z,0.83
2022-12-12T06:38:00.674Z,0.88
2022-12-12T06:38:34.868Z,0.84
2022-12-12T06:39:09.642Z,0.83
2022-12-12T06:39:49.689Z,0.89
2022-12-12T06:40:23.783Z,0.92
2022-12-12T06:40:57.819Z,0.94
2022-12-12T06:41:39.665Z,0.89
2022-12-12T06:42:13.725Z,0.81
2022-12-12T06:42:48.856Z,0.86
2022-12-12T06:43:28.644Z,0.85
2022-12-12T06:44:02.737Z,0.84
2022-12-12T06:44:36.439Z,0.84
2022-12-12T06:45:17.674Z,0.88
2022-12-12T06:45:51.863Z,0.86
2022-12-12T06:46:27.878Z,0.87
2022-12-12T06:47:07.643Z,0.94
2022-12-12T06:47:41.705Z,0.89
2022-12-12T06:48:15.338Z,0.85
2022-12-12T06:48:56.666Z,0.86
2022-12-12T06:49:30.696Z,0.91
2022-12-12T06:50:04.878Z,0.92
2022-12-12T06:50:49.683Z,0.93
2022-12-12T06:51:28.872Z,0.87
2022-12-12T06:52:15.660Z,0.83
2022-12-12T06:52:49.689Z,0.76
2022-12-12T06:53:36.649Z,0.81
2022-12-12T06:54:10.709Z,0.81
2022-12-12T06:54:57.650Z,0.84
2022-12-12T06:55:31.683Z,0.70
2022-12-12T06:56:14.636Z,0.85
2022-12-12T06:56:54.952Z,0.81
2022-12-12T06:57:34.648Z,0.76
2022-12-12T06:58:14.674Z,0.69
2022-12-12T06:58:55.645Z,0.74
2022-12-12T06:59:35.679Z,0.74
2022-12-12T07:00:16.632Z,0.75
2022-12-12T07:01:00.693Z,0.75
2022-12-12T07:01:40.688Z,0.66
2022-12-12T07:02:52.772Z,0.76
2022-12-12T07:03:32.644Z,0.85
2022-12-12T07:04:13.735Z,0.81
2022-12-12T07:04:53.630Z,0.81
2022-12-12T07:05:34.258Z,0.85
2022-12-12T07:06:16.651Z,0.87
2022-12-12T07:06:56.712Z,0.94
2022-12-12T07:07:30.692Z,0.89
2022-12-12T07:08:17.708Z,0.87
2022-12-12T07:08:51.858Z,0.95
2022-12-12T07:09:39.612Z,0.83
2022-12-12T07:10:17.607Z,0.85
2022-12-12T07:11:37.645Z,0.87
2022-12-12T07:12:18.671Z,0.85
2022-12-12T07:13:12.631Z,0.85
2022-12-12T07:14:10.626Z,0.89
2022-12-12T07:15:04.613Z,0.87
2022-12-12T07:16:03.692Z,0.93
2022-12-12T07:16:57.685Z,0.94
2022-12-12T07:17:38.648Z,0.98
2022-12-12T07:18:19.740Z,0.91
2022-12-12T07:18:59.613Z,0.99
2022-12-12T07:19:39.658Z,0.99
2022-12-12T07:20:19.604Z,0.92
2022-12-12T07:20:59.721Z,0.93
2022-12-12T07:21:39.604Z,0.88
2022-12-12T07:22:33.599Z,1.02
2022-12-12T07:23:15.636Z,1.03
2022-12-12T07:23:55.664Z,0.96
2022-12-12T07:24:35.616Z,0.97
2022-12-12T07:25:15.819Z,0.97
2022-12-12T07:25:56.607Z,1.00
2022-12-12T07:26:36.669Z,0.87
2022-12-12T07:27:21.553Z,0.86
2022-12-12T07:28:01.623Z,0.94
2022-12-12T07:28:42.655Z,0.88
2022-12-12T07:29:22.692Z,0.95
2022-12-12T07:30:02.608Z,0.95
2022-12-12T07:30:46.896Z,1.01
2022-12-12T07:31:29.626Z,0.97
2022-12-12T07:32:09.644Z,0.94
2022-12-12T07:32:50.621Z,1.02
2022-12-12T07:33:41.004Z,1.01
2022-12-12T07:34:22.624Z,1.02
2022-12-12T07:35:02.647Z,0.89
2022-12-12T07:35:43.575Z,0.81
2022-12-12T07:36:23.631Z,0.93
2022-12-12T07:37:04.613Z,0.92
2022-12-12T07:37:44.635Z,0.88
2022-12-12T07:38:25.601Z,0.81
2022-12-12T07:39:05.684Z,0.96
2022-12-12T07:39:46.612Z,0.80
2022-12-12T07:40:26.627Z,0.81
2022-12-12T07:41:16.580Z,0.85
2022-12-12T07:41:56.621Z,0.79
2022-12-12T07:42:36.594Z,0.82
2022-12-12T07:43:16.627Z,0.71
2022-12-12T07:43:57.601Z,0.81
2022-12-12T07:44:37.625Z,0.75
2022-12-12T07:45:18.593Z,0.76
2022-12-12T07:45:58.662Z,0.80
2022-12-12T07:46:39.620Z,0.85
2022-12-12T07:47:19.621Z,0.91
2022-12-12T07:48:00.580Z,0.86
2022-12-12T07:48:40.639Z,0.98
2022-12-12T07:49:21.587Z,0.97
2022-12-12T07:50:01.639Z,1.01
2022-12-12T07:50:41.603Z,0.91
2022-12-12T07:51:22.704Z,1.02
2022-12-12T07:52:02.610Z,1.08
2022-12-12T07:52:42.662Z,1.05
2022-12-12T07:53:22.573Z,1.13
2022-12-12T07:54:02.613Z,1.06
2022-12-12T07:54:42.566Z,1.04
2022-12-12T07:55:22.611Z,1.07
2022-12-12T07:56:02.626Z,0.99
2022-12-12T07:56:42.629Z,0.93
2022-12-12T07:57:22.575Z,0.87
2022-12-12T07:58:02.616Z,0.99
2022-12-12T07:58:43.589Z,0.93
2022-12-12T07:59:23.606Z,0.94
2022-12-12T08:00:04.567Z,0.93
2022-12-12T08:00:44.607Z,0.96
2022-12-12T08:01:29.652Z,0.92
2022-12-12T08:02:10.710Z,0.96
2022-12-12T08:02:50.576Z,0.91
2022-12-12T08:03:30.636Z,1.01
2022-12-12T08:04:11.560Z,1.06
2022-12-12T08:04:51.656Z,1.00
2022-12-12T08:05:31.577Z,0.92
2022-12-12T08:06:16.230Z,1.05
2022-12-12T08:07:02.728Z,1.01
2022-12-12T08:07:46.979Z,1.01
2022-12-12T08:08:27.603Z,1.03
2022-12-12T08:09:07.631Z,1.12
2022-12-12T08:09:47.565Z,1.11
2022-12-12T08:10:27.645Z,1.06
2022-12-12T08:11:15.580Z,1.07
2022-12-12T08:12:04.592Z,1.09
2022-12-12T08:12:58.546Z,1.11
2022-12-12T08:13:53.561Z,1.12
2022-12-12T08:14:47.543Z,1.03
2022-12-12T08:15:41.615Z,1.07
2022-12-12T08:16:38.591Z,1.13
2022-12-12T08:17:25.591Z,1.16
2022-12-12T08:17:59.589Z,1.12
2022-12-12T08:18:46.548Z,1.14
2022-12-12T08:19:20.584Z,1.06
2022-12-12T08:20:07.539Z,1.11
2022-12-12T08:20:41.593Z,1.12
2022-12-12T08:21:29.531Z,1.15
2022-12-12T08:22:03.612Z,1.16
2022-12-12T08:22:50.568Z,1.21
2022-12-12T08:23:24.666Z,1.29
2022-12-12T08:24:11.539Z,1.28
2022-12-12T08:24:45.656Z,1.23
2022-12-12T08:25:32.549Z,1.20
2022-12-12T08:26:15.592Z,1.20
2022-12-12T08:27:02.538Z,1.23
2022-12-12T08:27:36.618Z,1.19
2022-12-12T08:28:16.563Z,1.18
2022-12-12T08:28:56.600Z,1.13
2022-12-12T08:29:37.541Z,1.21
2022-12-12T08:30:18.598Z,1.19
2022-12-12T08:30:58.624Z,1.18
2022-12-12T08:31:38.645Z,1.33
2022-12-12T08:32:18.538Z,1.33
2022-12-12T08:33:01.321Z,1.25
2022-12-12T08:33:43.584Z,1.27
2022-12-12T08:34:23.593Z,1.19
2022-12-12T08:35:05.539Z,1.32
2022-12-12T08:35:45.586Z,1.37
2022-12-12T08:36:30.524Z,1.22
2022-12-12T08:37:10.646Z,1.26
2022-12-12T08:37:50.535Z,1.22
2022-12-12T08:38:30.737Z,1.26
2022-12-12T08:39:18.531Z,1.35
2022-12-12T08:39:58.573Z,1.25
2022-12-12T08:40:39.520Z,1.16
2022-12-12T08:41:20.617Z,1.29
2022-12-12T08:42:00.576Z,1.27
2022-12-12T08:42:40.664Z,1.36
2022-12-12T08:43:21.533Z,1.33
2022-12-12T08:44:01.633Z,1.32
2022-12-12T08:44:41.545Z,1.42
2022-12-12T08:45:21.622Z,1.42
2022-12-12T08:46:13.697Z,1.35
2022-12-12T08:46:57.664Z,1.36
2022-12-12T08:47:38.503Z,1.36
2022-12-12T08:48:18.592Z,1.45
2022-12-12T08:48:59.542Z,1.43
2022-12-12T08:49:39.571Z,1.41
2022-12-12T08:50:20.533Z,1.46
2022-12-12T08:51:00.551Z,1.42
2022-12-12T08:51:42.519Z,1.39
2022-12-12T08:52:23.548Z,1.31
2022-12-12T08:53:03.501Z,1.47
2022-12-12T08:53:43.546Z,1.46
2022-12-12T08:54:24.534Z,1.42
2022-12-12T08:55:04.641Z,1.46
2022-12-12T08:55:44.539Z,1.42
2022-12-12T08:56:25.703Z,1.49
2022-12-12T08:57:06.512Z,1.42
2022-12-12T08:57:46.569Z,1.56
2022-12-12T08:58:27.512Z,1.63
2022-12-12T08:59:07.599Z,1.65
2022-12-12T08:59:48.523Z,1.51
2022-12-12T09:00:28.580Z,1.53
2022-12-12T09:01:09.541Z,1.50
2022-12-12T09:01:49.719Z,1.55
2022-12-12T09:02:31.591Z,1.46
2022-12-12T09:03:11.954Z,1.45
2022-12-12T09:03:52.496Z,1.52
2022-12-12T09:04:32.575Z,1.51
2022-12-12T09:05:13.645Z,1.56
2022-12-12T09:05:54.536Z,1.50
2022-12-12T09:06:35.528Z,1.58
2022-12-12T09:07:15.558Z,1.53
2022-12-12T09:07:56.553Z,1.65
2022-12-12T09:08:36.609Z,1.55
2022-12-12T09:09:16.499Z,1.62
2022-12-12T09:09:56.631Z,1.37
2022-12-12T09:10:36.492Z,1.45
2022-12-12T09:11:17.603Z,1.42
2022-12-12T09:11:57.515Z,1.56
2022-12-12T09:12:41.622Z,1.46
2022-12-12T09:13:23.469Z,1.48
2022-12-12T09:14:03.534Z,1.62
2022-12-12T09:14:43.559Z,1.66
2022-12-12T09:15:24.528Z,1.60
2022-12-12T09:16:04.556Z,1.73
2022-12-12T09:16:44.577Z,1.63
2022-12-12T09:17:25.586Z,1.57
2022-12-12T09:18:05.548Z,1.70
2022-12-12T09:18:49.418Z,1.69
2022-12-12T09:19:31.023Z,1.61
2022-12-12T09:20:12.508Z,1.66
2022-12-12T09:20:57.642Z,1.58
2022-12-12T09:21:37.511Z,1.63
2022-12-12T09:22:17.945Z,1.68
2022-12-12T09:22:57.535Z,1.69
2022-12-12T09:23:38.564Z,1.72
2022-12-12T09:24:19.471Z,1.60
2022-12-12T09:25:00.169Z,1.63
2022-12-12T09:25:42.805Z,1.65
2022-12-12T09:26:23.584Z,1.59
2022-12-12T09:27:03.520Z,1.62
2022-12-12T09:27:43.572Z,1.43
2022-12-12T09:28:26.542Z,1.54
2022-12-12T09:29:07.583Z,1.49
2022-12-12T09:29:47.500Z,1.55
2022-12-12T09:30:27.580Z,1.46
2022-12-12T09:31:14.495Z,1.57
2022-12-12T09:31:54.739Z,1.53
2022-12-12T09:32:35.478Z,1.56
2022-12-12T09:33:15.538Z,1.58
2022-12-12T09:33:56.530Z,1.62
2022-12-12T09:34:36.512Z,1.59
2022-12-12T09:35:17.476Z,1.62
2022-12-12T09:36:08.539Z,1.69
2022-12-12T09:36:48.455Z,1.68
2022-12-12T09:37:28.593Z,1.61
2022-12-12T09:38:13.969Z,1.63
2022-12-12T09:38:54.497Z,1.63
2022-12-12T09:39:34.465Z,1.72
2022-12-12T09:40:17.549Z,1.57
2022-12-12T09:41:04.472Z,1.65
2022-12-12T09:41:44.554Z,1.80
2022-12-12T09:42:36.461Z,1.79
2022-12-12T09:43:29.225Z,1.84
2022-12-12T09:44:16.438Z,1.88
2022-12-12T09:45:02.472Z,1.97
2022-12-12T09:45:38.976Z,1.95
2022-12-12T09:46:47.479Z,1.86
2022-12-12T09:47:35.532Z,1.82
2022-12-12T09:48:44.470Z,1.65
2022-12-12T09:49:55.677Z,1.86
2022-12-12T09:50:52.467Z,1.96
2022-12-12T09:51:32.513Z,1.95
2022-12-12T09:52:20.439Z,1.92
2022-12-12T09:53:09.520Z,1.93
2022-12-12T09:53:52.467Z,1.91
2022-12-12T09:54:33.479Z,1.94
2022-12-12T09:55:41.444Z,1.95
2022-12-12T09:56:44.475Z,2.02
2022-12-12T09:57:38.493Z,1.83
2022-12-12T09:58:50.169Z,1.84
2022-12-12T09:59:47.599Z,1.77
2022-12-12T10:00:39.512Z,1.85
2022-12-12T10:01:30.482Z,1.83
2022-12-12T10:03:09.466Z,1.86
2022-12-12T10:04:13.586Z,1.94
2022-12-12T10:05:15.446Z,1.99
2022-12-12T10:07:32.434Z,1.78